Florissant, MO (63031)

9:13 PM CDT on March 31, 2015 (GMT -0500)
Riverwood Place | | Change Station
CLOSE
Current Station
Personal Weather Station
Location: Florissant, MO
Elevation: 531 ft
Nearby Weather Stations

Elev 531 ft 38.80 °N, 90.37 °W | Updated 6 seconds ago

Clear
Clear
56.5 °F
Feels Like 56.5 °F
N
0.0
Wind Variable Wind from ENE
Gusts 0.0 mph

Today
High -- | Low -- °F
--% Chance of Precip.
Yesterday
High -- | Low -- °F
Precip. -- in
6:47 AM 7:23 PM
Waxing Gibbous, 90% visible
Pressure 29.96 in
Visibility 10.0 miles
Clouds Clear
Dew Point 39 °F
Humidity 52%
Rainfall 0.00 in
Snow Depth Not available.
UV 0 out of 12
Pollen 10.90 out of 12
Air Quality Not available.
Flu Activity Not available.
METAR KSTL 010151Z 00000KT 10SM CLR 17/02 A2997 RMK AO2 SLP144 T01720022

More Conditions Fewer Conditions

Pressure 29.96 in
Visibility 10.0 miles
Clouds Clear
Dew Point 39 °F
Humidity 52%
Rainfall 0.00 in
Snow Depth Not available.
UV 0 out of 12
Pollen 10.90 out of 12
Air Quality Not available.
Flu Activity Not available.
METAR KSTL 010151Z 00000KT 10SM CLR 17/02 A2997 RMK AO2 SLP144 T01720022

More Conditions Fewer Conditions

10-Day Weather Forecast

Almanac

Astronomy

Mar. 31, 2015 Rise Set
Actual Time
Civil Twilight
Nautical Twilight
Astronomical Twilight
Moon
Length of Visible Light
Length of Day
Tomorrow will be .
, % of the Moon is Illuminated

Today's Extremes

State Highs State Lows

Community

WunderPhotos

Upload Photos

1,809,867 photos uploaded!

WunderBlogs® & News

Nearby

Air Quality

  Air Quality AQ Index Pollutant
Not available.

Snow Depth

Station Depth Elevation

Earthquake Activity

City Distance Mag. Time & Date
Minimum magnitude displayed is 2.5.

Coastal Water Temperatures

Place Temperature

Stations

Nearby Weather Stations

Station Location Temp. Windchill Dew Point Humidity Wind Precip. Elev Updated Type